sensor_id;sensor_type;location;lat;lon;timestamp;temperature;humidity
64654;DHT22;51065;48.884;12.598;2022-09-03T00:00:44;10.50;99.90
64654;DHT22;51065;48.884;12.598;2022-09-03T00:03:22;10.50;99.90
64654;DHT22;51065;48.884;12.598;2022-09-03T00:06:15;10.50;99.90
64654;DHT22;51065;48.884;12.598;2022-09-03T00:08:50;10.40;99.90
64654;DHT22;51065;48.884;12.598;2022-09-03T00:11:23;10.30;99.90
64654;DHT22;51065;48.884;12.598;2022-09-03T00:14:09;10.30;99.90
64654;DHT22;51065;48.884;12.598;2022-09-03T00:16:57;10.30;99.90
64654;DHT22;51065;48.884;12.598;2022-09-03T00:19:31;10.40;99.90
64654;DHT22;51065;48.884;12.598;2022-09-03T00:22:20;10.40;99.90
64654;DHT22;51065;48.884;12.598;2022-09-03T00:24:48;10.30;99.90
64654;DHT22;51065;48.884;12.598;2022-09-03T00:27:26;10.20;99.90
64654;DHT22;51065;48.884;12.598;2022-09-03T00:30:13;10.20;99.90
64654;DHT22;51065;48.884;12.598;2022-09-03T00:32:44;10.40;99.90
64654;DHT22;51065;48.884;12.598;2022-09-03T00:37:53;10.60;99.90
64654;DHT22;51065;48.884;12.598;2022-09-03T00:43:43;10.60;99.90
64654;DHT22;51065;48.884;12.598;2022-09-03T00:49:13;10.60;99.90
64654;DHT22;51065;48.884;12.598;2022-09-03T00:52:00;10.40;99.90
64654;DHT22;51065;48.884;12.598;2022-09-03T01:00:12;9.90;99.90
64654;DHT22;51065;48.884;12.598;2022-09-03T01:13:35;9.60;99.90
64654;DHT22;51065;48.884;12.598;2022-09-03T01:21:53;9.40;99.90
64654;DHT22;51065;48.884;12.598;2022-09-03T01:30:05;9.20;99.90
64654;DHT22;51065;48.884;12.598;2022-09-03T01:35:52;9.10;99.90
64654;DHT22;51065;48.884;12.598;2022-09-03T01:38:26;9.10;99.90
64654;DHT22;51065;48.884;12.598;2022-09-03T01:42:08;9.10;99.90
64654;DHT22;51065;48.884;12.598;2022-09-03T01:47:45;9.10;99.90
64654;DHT22;51065;48.884;12.598;2022-09-03T01:52:54;9.10;99.90
64654;DHT22;51065;48.884;12.598;2022-09-03T01:57:54;9.20;99.90
64654;DHT22;51065;48.884;12.598;2022-09-03T02:00:21;9.20;99.90
64654;DHT22;51065;48.884;12.598;2022-09-03T02:02:49;9.20;99.90
64654;DHT22;51065;48.884;12.598;2022-09-03T02:05:20;9.10;99.90
64654;DHT22;51065;48.884;12.598;2022-09-03T02:08:09;9.00;99.90
64654;DHT22;51065;48.884;12.598;2022-09-03T02:10:43;9.00;99.90
64654;DHT22;51065;48.884;12.598;2022-09-03T02:15:44;8.90;99.90
64654;DHT22;51065;48.884;12.598;2022-09-03T02:18:19;8.80;99.90
64654;DHT22;51065;48.884;12.598;2022-09-03T02:20:48;8.80;99.90
64654;DHT22;51065;48.884;12.598;2022-09-03T02:23:14;8.70;99.90
64654;DHT22;51065;48.884;12.598;2022-09-03T02:25:50;8.70;99.90
64654;DHT22;51065;48.884;12.598;2022-09-03T02:28:16;8.60;99.90
64654;DHT22;51065;48.884;12.598;2022-09-03T02:30:42;8.60;99.90
64654;DHT22;51065;48.884;12.598;2022-09-03T02:33:08;8.60;99.90
64654;DHT22;51065;48.884;12.598;2022-09-03T02:35:34;8.60;99.90
64654;DHT22;51065;48.884;12.598;2022-09-03T02:38:14;8.60;99.90
64654;DHT22;51065;48.884;12.598;2022-09-03T02:40:41;8.60;99.90
64654;DHT22;51065;48.884;12.598;2022-09-03T02:43:10;8.60;99.90
64654;DHT22;51065;48.884;12.598;2022-09-03T02:45:43;8.60;99.90
64654;DHT22;51065;48.884;12.598;2022-09-03T02:48:10;8.60;99.90
64654;DHT22;51065;48.884;12.598;2022-09-03T02:50:41;8.50;99.90
64654;DHT22;51065;48.884;12.598;2022-09-03T02:53:08;8.50;99.90
64654;DHT22;51065;48.884;12.598;2022-09-03T02:55:34;8.40;99.90
64654;DHT22;51065;48.884;12.598;2022-09-03T02:58:00;8.50;99.90
64654;DHT22;51065;48.884;12.598;2022-09-03T03:00:26;8.60;99.90
64654;DHT22;51065;48.884;12.598;2022-09-03T03:02:54;8.70;99.90
64654;DHT22;51065;48.884;12.598;2022-09-03T03:05:40;8.70;99.90
64654;DHT22;51065;48.884;12.598;2022-09-03T03:08:07;8.80;99.90
64654;DHT22;51065;48.884;12.598;2022-09-03T03:10:33;8.80;99.90
64654;DHT22;51065;48.884;12.598;2022-09-03T03:12:59;8.80;99.90
64654;DHT22;51065;48.884;12.598;2022-09-03T03:15:26;8.90;99.90
64654;DHT22;51065;48.884;12.598;2022-09-03T03:17:55;8.90;99.90
64654;DHT22;51065;48.884;12.598;2022-09-03T03:20:21;9.00;99.90
64654;DHT22;51065;48.884;12.598;2022-09-03T03:22:47;9.00;99.90
64654;DHT22;51065;48.884;12.598;2022-09-03T03:25:13;9.10;99.90
64654;DHT22;51065;48.884;12.598;2022-09-03T03:27:38;9.20;99.90
64654;DHT22;51065;48.884;12.598;2022-09-03T03:30:08;9.30;99.90
64654;DHT22;51065;48.884;12.598;2022-09-03T03:32:38;9.40;99.90
64654;DHT22;51065;48.884;12.598;2022-09-03T03:35:04;9.50;99.90
64654;DHT22;51065;48.884;12.598;2022-09-03T03:37:31;9.60;99.90
64654;DHT22;51065;48.884;12.598;2022-09-03T03:39:57;9.70;99.90
64654;DHT22;51065;48.884;12.598;2022-09-03T03:42:23;9.80;99.90
64654;DHT22;51065;48.884;12.598;2022-09-03T03:44:49;9.90;99.90
64654;DHT22;51065;48.884;12.598;2022-09-03T03:47:14;9.90;99.90
64654;DHT22;51065;48.884;12.598;2022-09-03T03:49:41;10.00;99.90
64654;DHT22;51065;48.884;12.598;2022-09-03T03:52:07;10.00;99.90
64654;DHT22;51065;48.884;12.598;2022-09-03T03:54:33;10.00;99.90
64654;DHT22;51065;48.884;12.598;2022-09-03T03:56:58;10.10;99.90
64654;DHT22;51065;48.884;12.598;2022-09-03T03:59:24;10.20;99.90
64654;DHT22;51065;48.884;12.598;2022-09-03T04:01:50;10.20;99.90
64654;DHT22;51065;48.884;12.598;2022-09-03T04:04:16;10.20;99.90
64654;DHT22;51065;48.884;12.598;2022-09-03T04:06:41;10.20;99.90
64654;DHT22;51065;48.884;12.598;2022-09-03T04:09:07;10.20;99.90
64654;DHT22;51065;48.884;12.598;2022-09-03T04:11:33;10.30;99.90
64654;DHT22;51065;48.884;12.598;2022-09-03T04:13:58;10.20;99.90
64654;DHT22;51065;48.884;12.598;2022-09-03T04:16:27;10.20;99.90
64654;DHT22;51065;48.884;12.598;2022-09-03T04:18:55;10.10;99.90
64654;DHT22;51065;48.884;12.598;2022-09-03T04:21:26;10.10;99.90
64654;DHT22;51065;48.884;12.598;2022-09-03T04:23:51;10.10;99.90
64654;DHT22;51065;48.884;12.598;2022-09-03T04:26:20;10.10;99.90
64654;DHT22;51065;48.884;12.598;2022-09-03T04:28:47;10.00;99.90
64654;DHT22;51065;48.884;12.598;2022-09-03T04:31:18;9.90;99.90
64654;DHT22;51065;48.884;12.598;2022-09-03T04:33:44;9.90;99.90
64654;DHT22;51065;48.884;12.598;2022-09-03T04:36:22;9.90;99.90
64654;DHT22;51065;48.884;12.598;2022-09-03T04:38:49;9.80;99.90
64654;DHT22;51065;48.884;12.598;2022-09-03T04:41:18;9.70;99.90
64654;DHT22;51065;48.884;12.598;2022-09-03T04:43:44;9.70;99.90
64654;DHT22;51065;48.884;12.598;2022-09-03T04:46:12;9.60;99.90
64654;DHT22;51065;48.884;12.598;2022-09-03T04:48:38;9.50;99.90
64654;DHT22;51065;48.884;12.598;2022-09-03T04:51:14;9.50;99.90
64654;DHT22;51065;48.884;12.598;2022-09-03T04:53:42;9.50;99.90
64654;DHT22;51065;48.884;12.598;2022-09-03T04:56:15;9.50;99.90
64654;DHT22;51065;48.884;12.598;2022-09-03T04:58:41;9.50;99.90
64654;DHT22;51065;48.884;12.598;2022-09-03T05:01:10;9.60;99.90
64654;DHT22;51065;48.884;12.598;2022-09-03T05:03:35;9.70;99.90
64654;DHT22;51065;48.884;12.598;2022-09-03T05:06:04;9.70;99.90
64654;DHT22;51065;48.884;12.598;2022-09-03T05:08:31;9.80;99.90
64654;DHT22;51065;48.884;12.598;2022-09-03T05:10:58;9.80;99.90
64654;DHT22;51065;48.884;12.598;2022-09-03T05:13:25;9.90;99.90
64654;DHT22;51065;48.884;12.598;2022-09-03T05:15:50;10.10;99.90
64654;DHT22;51065;48.884;12.598;2022-09-03T05:18:16;10.20;99.90
64654;DHT22;51065;48.884;12.598;2022-09-03T05:20:42;10.30;99.90
64654;DHT22;51065;48.884;12.598;2022-09-03T05:23:08;10.40;99.90
64654;DHT22;51065;48.884;12.598;2022-09-03T05:25:33;10.50;99.90
64654;DHT22;51065;48.884;12.598;2022-09-03T05:28:00;10.90;99.90
64654;DHT22;51065;48.884;12.598;2022-09-03T05:30:26;11.30;99.90
64654;DHT22;51065;48.884;12.598;2022-09-03T05:32:51;12.00;99.90
64654;DHT22;51065;48.884;12.598;2022-09-03T05:35:17;12.70;99.90
64654;DHT22;51065;48.884;12.598;2022-09-03T05:37:43;13.30;99.90
64654;DHT22;51065;48.884;12.598;2022-09-03T05:40:09;14.00;99.90
64654;DHT22;51065;48.884;12.598;2022-09-03T05:42:39;14.50;99.90
64654;DHT22;51065;48.884;12.598;2022-09-03T05:45:06;14.60;99.10
64654;DHT22;51065;48.884;12.598;2022-09-03T05:47:36;14.80;98.80
64654;DHT22;51065;48.884;12.598;2022-09-03T05:50:01;14.90;98.10
64654;DHT22;51065;48.884;12.598;2022-09-03T05:52:27;15.20;97.10
64654;DHT22;51065;48.884;12.598;2022-09-03T05:54:53;15.70;95.60
64654;DHT22;51065;48.884;12.598;2022-09-03T05:57:19;16.40;93.60
64654;DHT22;51065;48.884;12.598;2022-09-03T05:59:44;16.70;91.60
64654;DHT22;51065;48.884;12.598;2022-09-03T06:02:10;16.90;90.70
64654;DHT22;51065;48.884;12.598;2022-09-03T06:04:35;17.30;86.30
64654;DHT22;51065;48.884;12.598;2022-09-03T06:07:01;17.70;82.80
64654;DHT22;51065;48.884;12.598;2022-09-03T06:09:27;17.90;80.70
64654;DHT22;51065;48.884;12.598;2022-09-03T06:11:52;18.20;76.60
64654;DHT22;51065;48.884;12.598;2022-09-03T06:14:19;18.20;75.50
64654;DHT22;51065;48.884;12.598;2022-09-03T06:16:46;18.60;73.60
64654;DHT22;51065;48.884;12.598;2022-09-03T06:19:14;19.10;71.90
64654;DHT22;51065;48.884;12.598;2022-09-03T06:21:42;19.50;69.70
64654;DHT22;51065;48.884;12.598;2022-09-03T06:24:09;19.80;66.80
64654;DHT22;51065;48.884;12.598;2022-09-03T06:26:36;19.70;65.30
64654;DHT22;51065;48.884;12.598;2022-09-03T06:29:03;20.00;64.20
64654;DHT22;51065;48.884;12.598;2022-09-03T06:31:29;20.20;63.90
64654;DHT22;51065;48.884;12.598;2022-09-03T06:33:54;20.60;61.70
64654;DHT22;51065;48.884;12.598;2022-09-03T06:36:22;20.70;60.00
64654;DHT22;51065;48.884;12.598;2022-09-03T06:38:52;20.70;58.60
64654;DHT22;51065;48.884;12.598;2022-09-03T06:41:20;20.70;59.30
64654;DHT22;51065;48.884;12.598;2022-09-03T06:43:54;20.60;61.00
64654;DHT22;51065;48.884;12.598;2022-09-03T06:46:22;20.60;59.80
64654;DHT22;51065;48.884;12.598;2022-09-03T06:48:48;21.10;57.40
64654;DHT22;51065;48.884;12.598;2022-09-03T06:51:18;20.50;58.00
64654;DHT22;51065;48.884;12.598;2022-09-03T06:54:02;20.50;58.40
64654;DHT22;51065;48.884;12.598;2022-09-03T06:56:28;20.90;57.30
64654;DHT22;51065;48.884;12.598;2022-09-03T06:58:57;21.20;57.80
64654;DHT22;51065;48.884;12.598;2022-09-03T07:01:25;21.90;55.90
64654;DHT22;51065;48.884;12.598;2022-09-03T07:03:56;21.90;56.20
64654;DHT22;51065;48.884;12.598;2022-09-03T07:06:25;21.70;55.70
64654;DHT22;51065;48.884;12.598;2022-09-03T07:08:51;21.00;55.50
64654;DHT22;51065;48.884;12.598;2022-09-03T07:11:19;21.40;56.20
64654;DHT22;51065;48.884;12.598;2022-09-03T07:13:48;21.90;55.30
64654;DHT22;51065;48.884;12.598;2022-09-03T07:16:17;22.30;55.40
64654;DHT22;51065;48.884;12.598;2022-09-03T07:18:43;22.30;53.20
64654;DHT22;51065;48.884;12.598;2022-09-03T07:21:11;21.90;52.90
64654;DHT22;51065;48.884;12.598;2022-09-03T07:23:38;22.00;54.20
64654;DHT22;51065;48.884;12.598;2022-09-03T07:26:13;22.20;54.00
64654;DHT22;51065;48.884;12.598;2022-09-03T07:28:40;22.50;53.90
64654;DHT22;51065;48.884;12.598;2022-09-03T07:31:19;22.40;51.90
64654;DHT22;51065;48.884;12.598;2022-09-03T07:33:46;22.80;51.50
64654;DHT22;51065;48.884;12.598;2022-09-03T07:36:15;22.80;50.20
64654;DHT22;51065;48.884;12.598;2022-09-03T07:38:42;22.70;51.50
64654;DHT22;51065;48.884;12.598;2022-09-03T07:41:12;22.00;53.70
64654;DHT22;51065;48.884;12.598;2022-09-03T07:43:40;22.60;52.60
64654;DHT22;51065;48.884;12.598;2022-09-03T07:46:09;22.90;52.60
64654;DHT22;51065;48.884;12.598;2022-09-03T07:48:38;22.70;51.50
64654;DHT22;51065;48.884;12.598;2022-09-03T07:51:04;23.30;50.10
64654;DHT22;51065;48.884;12.598;2022-09-03T07:53:29;23.20;52.40
64654;DHT22;51065;48.884;12.598;2022-09-03T07:56:03;23.10;50.60
64654;DHT22;51065;48.884;12.598;2022-09-03T07:58:30;22.70;49.70
64654;DHT22;51065;48.884;12.598;2022-09-03T08:00:57;22.80;50.80
64654;DHT22;51065;48.884;12.598;2022-09-03T08:03:22;22.90;52.80
64654;DHT22;51065;48.884;12.598;2022-09-03T08:05:48;22.90;51.00
64654;DHT22;51065;48.884;12.598;2022-09-03T08:08:13;22.90;52.30
64654;DHT22;51065;48.884;12.598;2022-09-03T08:10:40;23.10;51.10
64654;DHT22;51065;48.884;12.598;2022-09-03T08:13:06;23.20;51.80
64654;DHT22;51065;48.884;12.598;2022-09-03T08:15:32;22.70;50.20
64654;DHT22;51065;48.884;12.598;2022-09-03T08:17:59;22.60;51.90
64654;DHT22;51065;48.884;12.598;2022-09-03T08:20:26;22.90;50.90
64654;DHT22;51065;48.884;12.598;2022-09-03T08:22:52;23.30;51.00
64654;DHT22;51065;48.884;12.598;2022-09-03T08:25:18;24.10;51.60
64654;DHT22;51065;48.884;12.598;2022-09-03T08:27:43;23.70;49.00
64654;DHT22;51065;48.884;12.598;2022-09-03T08:30:09;23.60;49.10
64654;DHT22;51065;48.884;12.598;2022-09-03T08:32:37;23.30;48.80
64654;DHT22;51065;48.884;12.598;2022-09-03T08:35:05;23.30;49.20
64654;DHT22;51065;48.884;12.598;2022-09-03T08:37:31;22.30;50.70
64654;DHT22;51065;48.884;12.598;2022-09-03T08:39:57;21.60;52.60
64654;DHT22;51065;48.884;12.598;2022-09-03T08:44:58;20.90;55.50
64654;DHT22;51065;48.884;12.598;2022-09-03T08:47:55;20.70;55.10
64654;DHT22;51065;48.884;12.598;2022-09-03T08:50:32;20.40;58.10
64654;DHT22;51065;48.884;12.598;2022-09-03T08:53:11;20.20;57.40
64654;DHT22;51065;48.884;12.598;2022-09-03T08:55:53;20.40;58.40
64654;DHT22;51065;48.884;12.598;2022-09-03T08:58:32;20.40;57.70
64654;DHT22;51065;48.884;12.598;2022-09-03T09:06:49;22.70;52.80
64654;DHT22;51065;48.884;12.598;2022-09-03T09:09:45;22.80;51.80
64654;DHT22;51065;48.884;12.598;2022-09-03T09:18:28;23.60;50.60
64654;DHT22;51065;48.884;12.598;2022-09-03T09:21:17;24.80;48.40
64654;DHT22;51065;48.884;12.598;2022-09-03T09:23:49;25.60;46.30
64654;DHT22;51065;48.884;12.598;2022-09-03T09:26:18;25.80;45.40
64654;DHT22;51065;48.884;12.598;2022-09-03T09:28:50;26.10;45.30
64654;DHT22;51065;48.884;12.598;2022-09-03T09:31:16;26.30;44.40
64654;DHT22;51065;48.884;12.598;2022-09-03T09:33:43;25.80;45.00
64654;DHT22;51065;48.884;12.598;2022-09-03T09:36:12;25.30;46.60
64654;DHT22;51065;48.884;12.598;2022-09-03T09:38:42;25.60;45.80
64654;DHT22;51065;48.884;12.598;2022-09-03T09:43:34;24.70;46.60
64654;DHT22;51065;48.884;12.598;2022-09-03T09:46:12;24.70;47.20
64654;DHT22;51065;48.884;12.598;2022-09-03T09:48:48;25.10;46.50
64654;DHT22;51065;48.884;12.598;2022-09-03T09:51:23;25.80;46.40
64654;DHT22;51065;48.884;12.598;2022-09-03T09:54:15;26.20;44.30
64654;DHT22;51065;48.884;12.598;2022-09-03T09:56:46;26.10;45.40
64654;DHT22;51065;48.884;12.598;2022-09-03T09:59:13;26.50;45.60
64654;DHT22;51065;48.884;12.598;2022-09-03T10:01:41;27.00;44.70
64654;DHT22;51065;48.884;12.598;2022-09-03T10:04:19;26.80;43.30
64654;DHT22;51065;48.884;12.598;2022-09-03T10:06:53;26.70;44.50
64654;DHT22;51065;48.884;12.598;2022-09-03T10:09:23;26.40;43.40
64654;DHT22;51065;48.884;12.598;2022-09-03T10:12:13;26.60;44.90
64654;DHT22;51065;48.884;12.598;2022-09-03T10:14:49;26.50;43.20
64654;DHT22;51065;48.884;12.598;2022-09-03T10:17:27;26.20;46.10
64654;DHT22;51065;48.884;12.598;2022-09-03T10:20:10;25.50;45.10
64654;DHT22;51065;48.884;12.598;2022-09-03T10:23:02;25.10;45.50
64654;DHT22;51065;48.884;12.598;2022-09-03T10:28:25;26.10;46.00
64654;DHT22;51065;48.884;12.598;2022-09-03T10:36:39;25.40;44.80
64654;DHT22;51065;48.884;12.598;2022-09-03T10:39:15;25.30;47.20
64654;DHT22;51065;48.884;12.598;2022-09-03T10:50:13;26.10;47.20
64654;DHT22;51065;48.884;12.598;2022-09-03T10:55:22;27.60;43.20
64654;DHT22;51065;48.884;12.598;2022-09-03T10:58:22;26.90;43.30
64654;DHT22;51065;48.884;12.598;2022-09-03T11:00:57;26.80;45.00
64654;DHT22;51065;48.884;12.598;2022-09-03T11:03:44;28.00;42.70
64654;DHT22;51065;48.884;12.598;2022-09-03T11:06:20;28.50;42.90
64654;DHT22;51065;48.884;12.598;2022-09-03T11:08:58;28.40;41.40
64654;DHT22;51065;48.884;12.598;2022-09-03T11:11:36;28.10;41.60
64654;DHT22;51065;48.884;12.598;2022-09-03T11:14:09;27.60;43.20
64654;DHT22;51065;48.884;12.598;2022-09-03T11:16:50;28.10;41.70
64654;DHT22;51065;48.884;12.598;2022-09-03T11:19:21;28.70;41.50
64654;DHT22;51065;48.884;12.598;2022-09-03T11:21:49;28.50;41.10
64654;DHT22;51065;48.884;12.598;2022-09-03T11:24:23;28.30;41.20
64654;DHT22;51065;48.884;12.598;2022-09-03T11:27:06;27.70;41.80
64654;DHT22;51065;48.884;12.598;2022-09-03T11:32:17;28.70;39.90
64654;DHT22;51065;48.884;12.598;2022-09-03T11:34:47;29.30;39.30
64654;DHT22;51065;48.884;12.598;2022-09-03T11:37:24;28.80;40.40
64654;DHT22;51065;48.884;12.598;2022-09-03T11:40:05;28.70;40.50
64654;DHT22;51065;48.884;12.598;2022-09-03T11:42:39;28.50;41.30
64654;DHT22;51065;48.884;12.598;2022-09-03T11:47:52;27.00;42.80
64654;DHT22;51065;48.884;12.598;2022-09-03T11:50:29;26.20;44.40
64654;DHT22;51065;48.884;12.598;2022-09-03T11:58:37;25.40;45.60
64654;DHT22;51065;48.884;12.598;2022-09-03T12:01:08;25.90;48.20
64654;DHT22;51065;48.884;12.598;2022-09-03T12:03:42;26.80;46.50
64654;DHT22;51065;48.884;12.598;2022-09-03T12:06:41;27.20;44.40
64654;DHT22;51065;48.884;12.598;2022-09-03T12:09:22;27.00;43.60
64654;DHT22;51065;48.884;12.598;2022-09-03T12:12:25;26.90;44.60
64654;DHT22;51065;48.884;12.598;2022-09-03T12:15:03;26.90;43.60
64654;DHT22;51065;48.884;12.598;2022-09-03T12:19:57;26.10;44.80
64654;DHT22;51065;48.884;12.598;2022-09-03T12:22:25;25.70;46.60
64654;DHT22;51065;48.884;12.598;2022-09-03T12:24:53;25.50;49.20
64654;DHT22;51065;48.884;12.598;2022-09-03T12:27:23;25.10;47.80
64654;DHT22;51065;48.884;12.598;2022-09-03T12:29:54;24.90;49.10
64654;DHT22;51065;48.884;12.598;2022-09-03T12:32:23;24.70;48.40
64654;DHT22;51065;48.884;12.598;2022-09-03T12:34:50;24.40;48.80
64654;DHT22;51065;48.884;12.598;2022-09-03T12:37:25;24.10;49.70
64654;DHT22;51065;48.884;12.598;2022-09-03T12:39:52;23.90;50.00
64654;DHT22;51065;48.884;12.598;2022-09-03T12:42:25;24.00;50.20
64654;DHT22;51065;48.884;12.598;2022-09-03T12:44:51;24.00;52.00
64654;DHT22;51065;48.884;12.598;2022-09-03T12:47:19;24.30;51.50
64654;DHT22;51065;48.884;12.598;2022-09-03T12:49:50;24.50;50.70
64654;DHT22;51065;48.884;12.598;2022-09-03T12:52:42;24.90;49.60
64654;DHT22;51065;48.884;12.598;2022-09-03T12:57:51;25.20;48.00
64654;DHT22;51065;48.884;12.598;2022-09-03T13:00:18;24.90;48.50
64654;DHT22;51065;48.884;12.598;2022-09-03T13:05:39;25.10;48.40
64654;DHT22;51065;48.884;12.598;2022-09-03T13:08:07;25.30;47.80
64654;DHT22;51065;48.884;12.598;2022-09-03T13:10:40;25.60;48.90
64654;DHT22;51065;48.884;12.598;2022-09-03T13:13:26;26.10;47.00
64654;DHT22;51065;48.884;12.598;2022-09-03T13:18:58;26.10;47.40
64654;DHT22;51065;48.884;12.598;2022-09-03T13:24:16;26.30;46.50
64654;DHT22;51065;48.884;12.598;2022-09-03T13:32:23;25.10;48.60
64654;DHT22;51065;48.884;12.598;2022-09-03T13:37:51;24.70;49.10
64654;DHT22;51065;48.884;12.598;2022-09-03T13:40:40;24.50;51.20
64654;DHT22;51065;48.884;12.598;2022-09-03T13:43:24;24.30;50.10
64654;DHT22;51065;48.884;12.598;2022-09-03T13:48:43;23.70;51.60
64654;DHT22;51065;48.884;12.598;2022-09-03T13:53:59;23.10;52.70
64654;DHT22;51065;48.884;12.598;2022-09-03T13:56:43;23.00;53.40
64654;DHT22;51065;48.884;12.598;2022-09-03T13:59:15;22.90;54.80
64654;DHT22;51065;48.884;12.598;2022-09-03T14:02:06;22.80;53.90
64654;DHT22;51065;48.884;12.598;2022-09-03T14:15:26;22.40;55.60
64654;DHT22;51065;48.884;12.598;2022-09-03T14:18:07;22.40;56.30
64654;DHT22;51065;48.884;12.598;2022-09-03T14:23:30;22.40;56.80
64654;DHT22;51065;48.884;12.598;2022-09-03T14:26:02;22.30;56.10
64654;DHT22;51065;48.884;12.598;2022-09-03T14:28:36;22.40;57.20
64654;DHT22;51065;48.884;12.598;2022-09-03T14:34:05;22.50;54.70
64654;DHT22;51065;48.884;12.598;2022-09-03T14:36:48;22.60;56.40
64654;DHT22;51065;48.884;12.598;2022-09-03T14:47:12;22.80;53.80
64654;DHT22;51065;48.884;12.598;2022-09-03T14:49:52;22.80;54.50
64654;DHT22;51065;48.884;12.598;2022-09-03T14:52:52;22.70;55.40
64654;DHT22;51065;48.884;12.598;2022-09-03T15:00:30;22.40;60.90
64654;DHT22;51065;48.884;12.598;2022-09-03T15:11:32;20.80;80.40
64654;DHT22;51065;48.884;12.598;2022-09-03T15:14:05;20.70;76.50
64654;DHT22;51065;48.884;12.598;2022-09-03T15:24:42;20.60;82.80
64654;DHT22;51065;48.884;12.598;2022-09-03T15:30:17;20.80;81.70
64654;DHT22;51065;48.884;12.598;2022-09-03T15:40:49;21.10;76.70
64654;DHT22;51065;48.884;12.598;2022-09-03T15:43:19;21.20;75.80
64654;DHT22;51065;48.884;12.598;2022-09-03T15:48:33;21.50;72.50
64654;DHT22;51065;48.884;12.598;2022-09-03T15:51:16;21.80;72.10
64654;DHT22;51065;48.884;12.598;2022-09-03T15:59:39;22.80;67.60
64654;DHT22;51065;48.884;12.598;2022-09-03T16:02:15;23.10;64.00
64654;DHT22;51065;48.884;12.598;2022-09-03T16:04:59;23.10;59.60
64654;DHT22;51065;48.884;12.598;2022-09-03T16:15:28;22.50;63.90
64654;DHT22;51065;48.884;12.598;2022-09-03T16:20:55;22.10;66.60
64654;DHT22;51065;48.884;12.598;2022-09-03T16:23:52;21.80;66.80
64654;DHT22;51065;48.884;12.598;2022-09-03T16:26:33;21.70;65.40
64654;DHT22;51065;48.884;12.598;2022-09-03T16:29:07;21.50;66.90
64654;DHT22;51065;48.884;12.598;2022-09-03T16:37:34;21.40;65.60
64654;DHT22;51065;48.884;12.598;2022-09-03T16:43:24;21.40;65.50
64654;DHT22;51065;48.884;12.598;2022-09-03T16:51:43;21.10;67.90
64654;DHT22;51065;48.884;12.598;2022-09-03T17:00:12;20.90;68.10
64654;DHT22;51065;48.884;12.598;2022-09-03T17:06:19;20.70;69.50
64654;DHT22;51065;48.884;12.598;2022-09-03T17:20:35;20.20;73.90
64654;DHT22;51065;48.884;12.598;2022-09-03T17:22:54;20.20;73.50
64654;DHT22;51065;48.884;12.598;2022-09-03T17:30:43;19.80;76.50
64654;DHT22;51065;48.884;12.598;2022-09-03T17:44:06;19.60;77.90
64654;DHT22;51065;48.884;12.598;2022-09-03T17:49:08;19.50;76.80
64654;DHT22;51065;48.884;12.598;2022-09-03T18:00:02;19.20;81.40
64654;DHT22;51065;48.884;12.598;2022-09-03T18:02:36;19.10;83.10
64654;DHT22;51065;48.884;12.598;2022-09-03T18:05:17;19.00;84.90
64654;DHT22;51065;48.884;12.598;2022-09-03T18:13:10;18.60;91.10
64654;DHT22;51065;48.884;12.598;2022-09-03T18:18:32;18.50;92.70
64654;DHT22;51065;48.884;12.598;2022-09-03T18:21:01;18.30;94.10
64654;DHT22;51065;48.884;12.598;2022-09-03T18:26:35;18.10;95.90
64654;DHT22;51065;48.884;12.598;2022-09-03T18:29:33;18.10;96.20
64654;DHT22;51065;48.884;12.598;2022-09-03T18:32:18;18.00;97.60
64654;DHT22;51065;48.884;12.598;2022-09-03T18:35:03;18.00;98.10
64654;DHT22;51065;48.884;12.598;2022-09-03T18:37:47;17.90;99.00
64654;DHT22;51065;48.884;12.598;2022-09-03T18:40:41;17.90;99.60
64654;DHT22;51065;48.884;12.598;2022-09-03T18:44:02;18.00;99.90
64654;DHT22;51065;48.884;12.598;2022-09-03T18:49:55;18.10;99.90
64654;DHT22;51065;48.884;12.598;2022-09-03T18:52:58;18.20;99.90
64654;DHT22;51065;48.884;12.598;2022-09-03T18:56:08;18.30;99.90
64654;DHT22;51065;48.884;12.598;2022-09-03T18:58:59;18.30;99.90
64654;DHT22;51065;48.884;12.598;2022-09-03T19:01:45;18.40;99.90
64654;DHT22;51065;48.884;12.598;2022-09-03T19:04:51;18.40;99.90
64654;DHT22;51065;48.884;12.598;2022-09-03T19:11:29;18.40;99.90
64654;DHT22;51065;48.884;12.598;2022-09-03T19:14:36;18.40;99.90
64654;DHT22;51065;48.884;12.598;2022-09-03T19:17:53;18.50;99.90
64654;DHT22;51065;48.884;12.598;2022-09-03T19:24:01;18.40;99.90
64654;DHT22;51065;48.884;12.598;2022-09-03T19:30:06;18.40;99.90
64654;DHT22;51065;48.884;12.598;2022-09-03T19:33:13;18.40;99.90
64654;DHT22;51065;48.884;12.598;2022-09-03T19:42:08;18.20;99.90
64654;DHT22;51065;48.884;12.598;2022-09-03T19:45:29;18.30;99.90
64654;DHT22;51065;48.884;12.598;2022-09-03T19:51:33;18.20;99.90
64654;DHT22;51065;48.884;12.598;2022-09-03T19:54:22;18.20;99.90
64654;DHT22;51065;48.884;12.598;2022-09-03T19:57:10;18.20;99.90
64654;DHT22;51065;48.884;12.598;2022-09-03T19:59:55;18.10;99.90
64654;DHT22;51065;48.884;12.598;2022-09-03T20:02:40;18.10;99.90
64654;DHT22;51065;48.884;12.598;2022-09-03T20:05:25;18.10;99.90
64654;DHT22;51065;48.884;12.598;2022-09-03T20:08:12;18.00;99.90
64654;DHT22;51065;48.884;12.598;2022-09-03T20:10:59;18.00;99.90
64654;DHT22;51065;48.884;12.598;2022-09-03T20:13:26;18.00;99.90
64654;DHT22;51065;48.884;12.598;2022-09-03T20:16:11;18.00;99.90
64654;DHT22;51065;48.884;12.598;2022-09-03T20:19:13;17.90;99.90
64654;DHT22;51065;48.884;12.598;2022-09-03T20:25:06;17.90;99.90
64654;DHT22;51065;48.884;12.598;2022-09-03T20:30:07;17.90;99.90
64654;DHT22;51065;48.884;12.598;2022-09-03T20:36:05;17.90;99.90
64654;DHT22;51065;48.884;12.598;2022-09-03T20:46:57;17.70;99.90
64654;DHT22;51065;48.884;12.598;2022-09-03T20:55:11;17.70;99.90
64654;DHT22;51065;48.884;12.598;2022-09-03T20:57:54;17.60;99.90
64654;DHT22;51065;48.884;12.598;2022-09-03T21:00:23;17.50;99.90
64654;DHT22;51065;48.884;12.598;2022-09-03T21:19:52;17.20;99.90
64654;DHT22;51065;48.884;12.598;2022-09-03T21:25:19;17.10;99.90
64654;DHT22;51065;48.884;12.598;2022-09-03T21:27:50;17.10;99.90
64654;DHT22;51065;48.884;12.598;2022-09-03T21:30:19;17.00;99.90
64654;DHT22;51065;48.884;12.598;2022-09-03T21:32:53;16.90;99.90
64654;DHT22;51065;48.884;12.598;2022-09-03T21:35:27;16.70;99.90
64654;DHT22;51065;48.884;12.598;2022-09-03T21:38:10;16.60;99.90
64654;DHT22;51065;48.884;12.598;2022-09-03T21:40:42;16.40;99.90
64654;DHT22;51065;48.884;12.598;2022-09-03T21:45:51;16.10;99.90